sensor_id;sensor_type;location;lat;lon;timestamp;temperature;humidity
81136;DHT22;70622;50.886;3.890;2023-06-26T00:02:01;21.90;54.60
81136;DHT22;70622;50.886;3.890;2023-06-26T00:04:27;21.90;54.30
81136;DHT22;70622;50.886;3.890;2023-06-26T00:06:52;21.80;53.90
81136;DHT22;70622;50.886;3.890;2023-06-26T00:09:18;21.70;53.70
81136;DHT22;70622;50.886;3.890;2023-06-26T00:11:43;21.70;53.20
81136;DHT22;70622;50.886;3.890;2023-06-26T00:14:09;21.70;53.20
81136;DHT22;70622;50.886;3.890;2023-06-26T00:16:36;21.60;53.10
81136;DHT22;70622;50.886;3.890;2023-06-26T00:19:01;21.60;53.40
81136;DHT22;70622;50.886;3.890;2023-06-26T00:21:27;21.60;53.40
81136;DHT22;70622;50.886;3.890;2023-06-26T00:23:53;21.70;53.20
81136;DHT22;70622;50.886;3.890;2023-06-26T00:26:18;21.70;53.30
81136;DHT22;70622;50.886;3.890;2023-06-26T00:28:44;21.50;53.60
81136;DHT22;70622;50.886;3.890;2023-06-26T00:31:10;21.40;54.30
81136;DHT22;70622;50.886;3.890;2023-06-26T00:33:35;21.30;54.80
81136;DHT22;70622;50.886;3.890;2023-06-26T00:36:01;21.40;55.00
81136;DHT22;70622;50.886;3.890;2023-06-26T00:38:27;21.20;55.90
81136;DHT22;70622;50.886;3.890;2023-06-26T00:40:52;21.20;56.30
81136;DHT22;70622;50.886;3.890;2023-06-26T00:43:20;21.20;56.60
81136;DHT22;70622;50.886;3.890;2023-06-26T00:45:45;21.10;56.60
81136;DHT22;70622;50.886;3.890;2023-06-26T00:48:11;21.10;56.80
81136;DHT22;70622;50.886;3.890;2023-06-26T00:50:37;21.10;57.10
81136;DHT22;70622;50.886;3.890;2023-06-26T00:53:03;21.10;57.40
81136;DHT22;70622;50.886;3.890;2023-06-26T00:55:29;21.10;57.40
81136;DHT22;70622;50.886;3.890;2023-06-26T00:57:55;21.10;57.80
81136;DHT22;70622;50.886;3.890;2023-06-26T01:00:21;21.10;57.90
81136;DHT22;70622;50.886;3.890;2023-06-26T01:02:48;21.10;58.00
81136;DHT22;70622;50.886;3.890;2023-06-26T01:05:14;21.10;58.30
81136;DHT22;70622;50.886;3.890;2023-06-26T01:07:49;21.00;59.00
81136;DHT22;70622;50.886;3.890;2023-06-26T01:10:16;21.00;59.20
81136;DHT22;70622;50.886;3.890;2023-06-26T01:12:42;20.80;60.30
81136;DHT22;70622;50.886;3.890;2023-06-26T01:15:08;20.80;61.00
81136;DHT22;70622;50.886;3.890;2023-06-26T01:17:36;20.60;61.50
81136;DHT22;70622;50.886;3.890;2023-06-26T01:20:05;20.60;61.90
81136;DHT22;70622;50.886;3.890;2023-06-26T01:25:33;20.50;62.10
81136;DHT22;70622;50.886;3.890;2023-06-26T01:28:07;20.60;62.80
81136;DHT22;70622;50.886;3.890;2023-06-26T01:30:44;20.50;63.00
81136;DHT22;70622;50.886;3.890;2023-06-26T01:33:11;20.50;63.20
81136;DHT22;70622;50.886;3.890;2023-06-26T01:35:38;20.50;63.30
81136;DHT22;70622;50.886;3.890;2023-06-26T01:40:50;20.50;63.60
81136;DHT22;70622;50.886;3.890;2023-06-26T01:55:32;20.50;65.10
81136;DHT22;70622;50.886;3.890;2023-06-26T01:58:01;20.40;65.00
81136;DHT22;70622;50.886;3.890;2023-06-26T02:00:28;20.40;65.30
81136;DHT22;70622;50.886;3.890;2023-06-26T02:02:54;20.40;65.30
81136;DHT22;70622;50.886;3.890;2023-06-26T02:05:20;20.20;66.00
81136;DHT22;70622;50.886;3.890;2023-06-26T02:07:45;20.20;66.60
81136;DHT22;70622;50.886;3.890;2023-06-26T02:10:11;20.10;67.10
81136;DHT22;70622;50.886;3.890;2023-06-26T02:12:37;20.10;67.30
81136;DHT22;70622;50.886;3.890;2023-06-26T02:15:03;20.00;67.70
81136;DHT22;70622;50.886;3.890;2023-06-26T02:17:30;20.00;67.90
81136;DHT22;70622;50.886;3.890;2023-06-26T02:19:55;19.90;68.30
81136;DHT22;70622;50.886;3.890;2023-06-26T02:22:21;19.90;68.60
81136;DHT22;70622;50.886;3.890;2023-06-26T02:24:47;19.80;68.90
81136;DHT22;70622;50.886;3.890;2023-06-26T02:27:13;19.70;69.30
81136;DHT22;70622;50.886;3.890;2023-06-26T02:29:40;19.60;70.20
81136;DHT22;70622;50.886;3.890;2023-06-26T02:32:06;19.50;70.60
81136;DHT22;70622;50.886;3.890;2023-06-26T02:34:32;19.40;71.10
81136;DHT22;70622;50.886;3.890;2023-06-26T02:36:58;19.30;71.40
81136;DHT22;70622;50.886;3.890;2023-06-26T02:39:26;19.30;71.70
81136;DHT22;70622;50.886;3.890;2023-06-26T02:41:52;19.20;71.90
81136;DHT22;70622;50.886;3.890;2023-06-26T02:44:17;19.10;72.30
81136;DHT22;70622;50.886;3.890;2023-06-26T02:46:43;19.10;72.70
81136;DHT22;70622;50.886;3.890;2023-06-26T02:49:09;19.00;72.70
81136;DHT22;70622;50.886;3.890;2023-06-26T02:51:34;19.00;72.90
81136;DHT22;70622;50.886;3.890;2023-06-26T02:54:00;19.00;73.30
81136;DHT22;70622;50.886;3.890;2023-06-26T02:56:26;18.90;73.40
81136;DHT22;70622;50.886;3.890;2023-06-26T02:58:56;18.80;73.50
81136;DHT22;70622;50.886;3.890;2023-06-26T03:01:22;18.80;73.60
81136;DHT22;70622;50.886;3.890;2023-06-26T03:03:47;18.80;73.70
81136;DHT22;70622;50.886;3.890;2023-06-26T03:06:14;18.80;74.80
81136;DHT22;70622;50.886;3.890;2023-06-26T03:08:40;18.70;73.90
81136;DHT22;70622;50.886;3.890;2023-06-26T03:11:06;18.70;74.00
81136;DHT22;70622;50.886;3.890;2023-06-26T03:13:33;18.70;74.00
81136;DHT22;70622;50.886;3.890;2023-06-26T03:15:59;18.70;73.80
81136;DHT22;70622;50.886;3.890;2023-06-26T03:18:25;18.70;73.80
81136;DHT22;70622;50.886;3.890;2023-06-26T03:20:51;18.70;73.60
81136;DHT22;70622;50.886;3.890;2023-06-26T03:23:17;18.70;73.20
81136;DHT22;70622;50.886;3.890;2023-06-26T03:25:42;18.70;73.20
81136;DHT22;70622;50.886;3.890;2023-06-26T03:28:08;18.70;73.20
81136;DHT22;70622;50.886;3.890;2023-06-26T03:30:34;18.60;73.40
81136;DHT22;70622;50.886;3.890;2023-06-26T03:32:59;18.50;73.60
81136;DHT22;70622;50.886;3.890;2023-06-26T03:35:25;18.40;73.90
81136;DHT22;70622;50.886;3.890;2023-06-26T03:37:50;18.30;74.20
81136;DHT22;70622;50.886;3.890;2023-06-26T03:40:16;18.20;73.90
81136;DHT22;70622;50.886;3.890;2023-06-26T03:45:17;18.30;75.20
81136;DHT22;70622;50.886;3.890;2023-06-26T03:47:44;18.20;74.30
81136;DHT22;70622;50.886;3.890;2023-06-26T03:50:12;18.10;74.00
81136;DHT22;70622;50.886;3.890;2023-06-26T03:52:38;18.20;73.90
81136;DHT22;70622;50.886;3.890;2023-06-26T03:55:04;18.10;73.80
81136;DHT22;70622;50.886;3.890;2023-06-26T03:57:29;18.10;73.80
81136;DHT22;70622;50.886;3.890;2023-06-26T03:59:55;18.20;73.30
81136;DHT22;70622;50.886;3.890;2023-06-26T04:02:20;18.20;73.10
81136;DHT22;70622;50.886;3.890;2023-06-26T04:04:46;18.10;73.50
81136;DHT22;70622;50.886;3.890;2023-06-26T04:07:12;18.10;73.60
81136;DHT22;70622;50.886;3.890;2023-06-26T04:09:37;18.00;73.40
81136;DHT22;70622;50.886;3.890;2023-06-26T04:12:03;17.90;73.40
81136;DHT22;70622;50.886;3.890;2023-06-26T04:14:29;17.90;73.40
81136;DHT22;70622;50.886;3.890;2023-06-26T04:16:55;17.90;73.60
81136;DHT22;70622;50.886;3.890;2023-06-26T04:19:20;17.90;73.10
81136;DHT22;70622;50.886;3.890;2023-06-26T04:21:46;17.90;73.20
81136;DHT22;70622;50.886;3.890;2023-06-26T04:24:12;17.90;72.50
81136;DHT22;70622;50.886;3.890;2023-06-26T04:26:37;18.00;71.90
81136;DHT22;70622;50.886;3.890;2023-06-26T04:29:03;18.00;71.90
81136;DHT22;70622;50.886;3.890;2023-06-26T04:31:29;18.10;71.30
81136;DHT22;70622;50.886;3.890;2023-06-26T04:33:54;18.10;70.70
81136;DHT22;70622;50.886;3.890;2023-06-26T04:36:21;18.10;70.60
81136;DHT22;70622;50.886;3.890;2023-06-26T04:38:46;18.20;70.00
81136;DHT22;70622;50.886;3.890;2023-06-26T04:41:14;18.30;69.10
81136;DHT22;70622;50.886;3.890;2023-06-26T04:43:39;18.10;69.30
81136;DHT22;70622;50.886;3.890;2023-06-26T04:46:05;18.20;69.30
81136;DHT22;70622;50.886;3.890;2023-06-26T04:48:32;18.20;68.80
81136;DHT22;70622;50.886;3.890;2023-06-26T04:50:57;18.20;68.40
81136;DHT22;70622;50.886;3.890;2023-06-26T04:53:24;18.20;68.10
81136;DHT22;70622;50.886;3.890;2023-06-26T04:55:51;18.20;67.80
81136;DHT22;70622;50.886;3.890;2023-06-26T04:58:18;18.10;67.90
81136;DHT22;70622;50.886;3.890;2023-06-26T05:00:43;18.10;67.90
81136;DHT22;70622;50.886;3.890;2023-06-26T05:03:10;18.10;67.50
81136;DHT22;70622;50.886;3.890;2023-06-26T05:05:36;18.20;67.50
81136;DHT22;70622;50.886;3.890;2023-06-26T05:08:23;18.20;66.50
81136;DHT22;70622;50.886;3.890;2023-06-26T05:10:49;18.30;66.70
81136;DHT22;70622;50.886;3.890;2023-06-26T05:13:15;18.30;66.30
81136;DHT22;70622;50.886;3.890;2023-06-26T05:15:44;18.30;65.40
81136;DHT22;70622;50.886;3.890;2023-06-26T05:18:09;18.30;65.50
81136;DHT22;70622;50.886;3.890;2023-06-26T05:20:36;18.30;65.40
81136;DHT22;70622;50.886;3.890;2023-06-26T05:23:03;18.30;65.00
81136;DHT22;70622;50.886;3.890;2023-06-26T05:25:29;18.40;64.90
81136;DHT22;70622;50.886;3.890;2023-06-26T05:27:56;18.50;64.00
81136;DHT22;70622;50.886;3.890;2023-06-26T05:30:23;18.40;63.70
81136;DHT22;70622;50.886;3.890;2023-06-26T05:32:51;18.50;63.60
81136;DHT22;70622;50.886;3.890;2023-06-26T05:35:18;18.50;63.40
81136;DHT22;70622;50.886;3.890;2023-06-26T05:37:45;18.50;62.90
81136;DHT22;70622;50.886;3.890;2023-06-26T05:40:13;18.50;62.70
81136;DHT22;70622;50.886;3.890;2023-06-26T05:42:39;18.60;62.70
81136;DHT22;70622;50.886;3.890;2023-06-26T05:45:05;18.50;62.00
81136;DHT22;70622;50.886;3.890;2023-06-26T05:47:31;18.40;61.70
81136;DHT22;70622;50.886;3.890;2023-06-26T05:49:57;18.40;62.30
81136;DHT22;70622;50.886;3.890;2023-06-26T05:52:23;18.40;62.60
81136;DHT22;70622;50.886;3.890;2023-06-26T05:54:49;18.50;62.60
81136;DHT22;70622;50.886;3.890;2023-06-26T05:57:15;18.60;63.10
81136;DHT22;70622;50.886;3.890;2023-06-26T05:59:43;18.80;61.70
81136;DHT22;70622;50.886;3.890;2023-06-26T06:02:09;18.80;61.60
81136;DHT22;70622;50.886;3.890;2023-06-26T06:04:34;18.70;61.30
81136;DHT22;70622;50.886;3.890;2023-06-26T06:07:02;18.80;61.10
81136;DHT22;70622;50.886;3.890;2023-06-26T06:09:28;18.90;61.90
81136;DHT22;70622;50.886;3.890;2023-06-26T06:11:53;18.80;61.20
81136;DHT22;70622;50.886;3.890;2023-06-26T06:14:19;18.70;61.60
81136;DHT22;70622;50.886;3.890;2023-06-26T06:16:45;18.70;61.90
81136;DHT22;70622;50.886;3.890;2023-06-26T06:19:10;18.80;62.00
81136;DHT22;70622;50.886;3.890;2023-06-26T06:21:39;18.80;61.50
81136;DHT22;70622;50.886;3.890;2023-06-26T06:24:04;18.80;61.80
81136;DHT22;70622;50.886;3.890;2023-06-26T06:26:32;19.00;61.70
81136;DHT22;70622;50.886;3.890;2023-06-26T06:28:57;19.00;61.50
81136;DHT22;70622;50.886;3.890;2023-06-26T06:31:23;19.00;61.20
81136;DHT22;70622;50.886;3.890;2023-06-26T06:33:49;18.90;61.30
81136;DHT22;70622;50.886;3.890;2023-06-26T06:36:14;19.00;61.70
81136;DHT22;70622;50.886;3.890;2023-06-26T06:38:43;19.00;61.20
81136;DHT22;70622;50.886;3.890;2023-06-26T06:41:09;19.00;61.40
81136;DHT22;70622;50.886;3.890;2023-06-26T06:43:35;19.00;62.30
81136;DHT22;70622;50.886;3.890;2023-06-26T06:46:01;19.10;60.80
81136;DHT22;70622;50.886;3.890;2023-06-26T06:48:27;19.10;60.60
81136;DHT22;70622;50.886;3.890;2023-06-26T06:50:53;19.20;61.70
81136;DHT22;70622;50.886;3.890;2023-06-26T06:53:19;19.30;60.10
81136;DHT22;70622;50.886;3.890;2023-06-26T06:55:46;19.30;59.60
81136;DHT22;70622;50.886;3.890;2023-06-26T06:58:12;19.30;60.00
81136;DHT22;70622;50.886;3.890;2023-06-26T07:00:37;19.30;59.80
81136;DHT22;70622;50.886;3.890;2023-06-26T07:03:03;19.30;59.90
81136;DHT22;70622;50.886;3.890;2023-06-26T07:05:29;19.30;60.10
81136;DHT22;70622;50.886;3.890;2023-06-26T07:07:55;19.40;59.60
81136;DHT22;70622;50.886;3.890;2023-06-26T07:10:21;19.30;59.60
81136;DHT22;70622;50.886;3.890;2023-06-26T07:12:46;19.40;59.40
81136;DHT22;70622;50.886;3.890;2023-06-26T07:15:12;19.40;59.10
81136;DHT22;70622;50.886;3.890;2023-06-26T07:17:38;19.50;59.10
81136;DHT22;70622;50.886;3.890;2023-06-26T07:20:05;19.60;58.90
81136;DHT22;70622;50.886;3.890;2023-06-26T07:22:36;19.60;58.40
81136;DHT22;70622;50.886;3.890;2023-06-26T07:25:02;19.70;57.40
81136;DHT22;70622;50.886;3.890;2023-06-26T07:27:29;19.70;59.00
81136;DHT22;70622;50.886;3.890;2023-06-26T07:29:55;19.80;58.10
81136;DHT22;70622;50.886;3.890;2023-06-26T07:32:20;19.80;57.80
81136;DHT22;70622;50.886;3.890;2023-06-26T07:34:46;19.90;58.20
81136;DHT22;70622;50.886;3.890;2023-06-26T07:37:11;19.90;58.00
81136;DHT22;70622;50.886;3.890;2023-06-26T07:39:37;19.90;57.30
81136;DHT22;70622;50.886;3.890;2023-06-26T07:42:03;19.80;57.90
81136;DHT22;70622;50.886;3.890;2023-06-26T07:44:29;20.00;57.20
81136;DHT22;70622;50.886;3.890;2023-06-26T07:46:54;20.10;56.30
81136;DHT22;70622;50.886;3.890;2023-06-26T07:49:20;20.20;56.20
81136;DHT22;70622;50.886;3.890;2023-06-26T07:51:45;20.30;56.50
81136;DHT22;70622;50.886;3.890;2023-06-26T07:54:11;20.40;56.60
81136;DHT22;70622;50.886;3.890;2023-06-26T07:56:57;20.40;55.40
81136;DHT22;70622;50.886;3.890;2023-06-26T07:59:28;20.50;56.20
81136;DHT22;70622;50.886;3.890;2023-06-26T08:01:55;20.50;55.20
81136;DHT22;70622;50.886;3.890;2023-06-26T08:04:22;20.50;55.60
81136;DHT22;70622;50.886;3.890;2023-06-26T08:06:53;20.50;56.10
81136;DHT22;70622;50.886;3.890;2023-06-26T08:09:21;20.50;54.50
81136;DHT22;70622;50.886;3.890;2023-06-26T08:11:47;20.50;55.40
81136;DHT22;70622;50.886;3.890;2023-06-26T08:14:13;20.60;54.80
81136;DHT22;70622;50.886;3.890;2023-06-26T08:16:39;20.70;54.40
81136;DHT22;70622;50.886;3.890;2023-06-26T08:19:30;20.70;52.90
81136;DHT22;70622;50.886;3.890;2023-06-26T08:21:56;20.90;53.70
81136;DHT22;70622;50.886;3.890;2023-06-26T08:24:21;21.10;53.50
81136;DHT22;70622;50.886;3.890;2023-06-26T08:26:48;21.10;52.30
81136;DHT22;70622;50.886;3.890;2023-06-26T08:29:14;21.20;52.30
81136;DHT22;70622;50.886;3.890;2023-06-26T08:31:40;21.20;52.70
81136;DHT22;70622;50.886;3.890;2023-06-26T08:34:06;21.30;52.60
81136;DHT22;70622;50.886;3.890;2023-06-26T08:36:32;21.20;52.10
81136;DHT22;70622;50.886;3.890;2023-06-26T08:38:58;21.20;51.60
81136;DHT22;70622;50.886;3.890;2023-06-26T08:41:24;21.40;51.90
81136;DHT22;70622;50.886;3.890;2023-06-26T08:43:50;21.40;51.70
81136;DHT22;70622;50.886;3.890;2023-06-26T08:46:18;21.30;51.70
81136;DHT22;70622;50.886;3.890;2023-06-26T08:48:56;21.30;51.30
81136;DHT22;70622;50.886;3.890;2023-06-26T08:51:24;21.30;50.60
81136;DHT22;70622;50.886;3.890;2023-06-26T08:54:03;21.20;49.70
81136;DHT22;70622;50.886;3.890;2023-06-26T08:56:36;21.30;50.10
81136;DHT22;70622;50.886;3.890;2023-06-26T08:59:04;21.40;50.00
81136;DHT22;70622;50.886;3.890;2023-06-26T09:01:30;21.50;49.90
81136;DHT22;70622;50.886;3.890;2023-06-26T09:03:57;21.40;49.00
81136;DHT22;70622;50.886;3.890;2023-06-26T09:06:22;21.60;47.90
81136;DHT22;70622;50.886;3.890;2023-06-26T09:08:48;21.50;48.50
81136;DHT22;70622;50.886;3.890;2023-06-26T09:11:14;21.40;49.50
81136;DHT22;70622;50.886;3.890;2023-06-26T09:13:40;21.40;48.50
81136;DHT22;70622;50.886;3.890;2023-06-26T09:16:09;21.50;48.50
81136;DHT22;70622;50.886;3.890;2023-06-26T09:18:34;21.60;48.70
81136;DHT22;70622;50.886;3.890;2023-06-26T09:21:06;21.60;47.80
81136;DHT22;70622;50.886;3.890;2023-06-26T09:23:32;21.70;47.70
81136;DHT22;70622;50.886;3.890;2023-06-26T09:25:58;22.00;46.10
81136;DHT22;70622;50.886;3.890;2023-06-26T09:28:24;22.00;46.40
81136;DHT22;70622;50.886;3.890;2023-06-26T09:30:50;22.00;46.70
81136;DHT22;70622;50.886;3.890;2023-06-26T09:33:18;21.90;46.80
81136;DHT22;70622;50.886;3.890;2023-06-26T09:35:45;21.90;46.10
81136;DHT22;70622;50.886;3.890;2023-06-26T09:38:12;21.90;45.80
81136;DHT22;70622;50.886;3.890;2023-06-26T09:40:37;22.10;46.30
81136;DHT22;70622;50.886;3.890;2023-06-26T09:43:04;21.90;46.20
81136;DHT22;70622;50.886;3.890;2023-06-26T09:45:34;21.90;46.50
81136;DHT22;70622;50.886;3.890;2023-06-26T09:48:05;22.10;45.00
81136;DHT22;70622;50.886;3.890;2023-06-26T09:50:33;22.10;44.60
81136;DHT22;70622;50.886;3.890;2023-06-26T09:53:11;22.00;45.10
81136;DHT22;70622;50.886;3.890;2023-06-26T09:55:39;22.30;45.80
81136;DHT22;70622;50.886;3.890;2023-06-26T09:58:11;22.60;45.60
81136;DHT22;70622;50.886;3.890;2023-06-26T10:00:43;22.40;44.30
81136;DHT22;70622;50.886;3.890;2023-06-26T10:03:10;22.30;45.80
81136;DHT22;70622;50.886;3.890;2023-06-26T10:05:37;22.30;46.50
81136;DHT22;70622;50.886;3.890;2023-06-26T10:08:04;22.50;45.50
81136;DHT22;70622;50.886;3.890;2023-06-26T10:10:33;22.60;45.20
81136;DHT22;70622;50.886;3.890;2023-06-26T10:13:03;22.50;44.70
81136;DHT22;70622;50.886;3.890;2023-06-26T10:15:30;22.50;45.60
81136;DHT22;70622;50.886;3.890;2023-06-26T10:17:56;22.70;45.50
81136;DHT22;70622;50.886;3.890;2023-06-26T10:20:24;23.00;43.60
81136;DHT22;70622;50.886;3.890;2023-06-26T10:22:50;23.10;43.90
81136;DHT22;70622;50.886;3.890;2023-06-26T10:25:19;22.90;42.90
81136;DHT22;70622;50.886;3.890;2023-06-26T10:27:55;23.10;42.20
81136;DHT22;70622;50.886;3.890;2023-06-26T10:30:26;23.00;42.20
81136;DHT22;70622;50.886;3.890;2023-06-26T10:32:54;23.10;42.40
81136;DHT22;70622;50.886;3.890;2023-06-26T10:35:20;22.90;42.40
81136;DHT22;70622;50.886;3.890;2023-06-26T10:37:48;22.60;43.30
81136;DHT22;70622;50.886;3.890;2023-06-26T10:40:28;22.70;42.70
81136;DHT22;70622;50.886;3.890;2023-06-26T10:43:07;22.90;42.10
81136;DHT22;70622;50.886;3.890;2023-06-26T10:45:33;23.10;42.80
81136;DHT22;70622;50.886;3.890;2023-06-26T10:48:00;23.30;42.50
81136;DHT22;70622;50.886;3.890;2023-06-26T10:50:27;23.30;42.80
81136;DHT22;70622;50.886;3.890;2023-06-26T11:06:21;23.70;39.30
81136;DHT22;70622;50.886;3.890;2023-06-26T11:24:54;23.30;39.20
81136;DHT22;70622;50.886;3.890;2023-06-26T11:27:24;24.00;36.60
81136;DHT22;70622;50.886;3.890;2023-06-26T11:29:50;24.00;38.20
81136;DHT22;70622;50.886;3.890;2023-06-26T11:32:15;24.10;36.00
81136;DHT22;70622;50.886;3.890;2023-06-26T11:34:41;23.90;34.50
81136;DHT22;70622;50.886;3.890;2023-06-26T11:37:08;24.00;35.90
81136;DHT22;70622;50.886;3.890;2023-06-26T11:39:34;24.00;36.40
81136;DHT22;70622;50.886;3.890;2023-06-26T11:42:00;24.00;35.70
81136;DHT22;70622;50.886;3.890;2023-06-26T11:44:30;24.20;36.50
81136;DHT22;70622;50.886;3.890;2023-06-26T11:46:57;24.40;35.30
81136;DHT22;70622;50.886;3.890;2023-06-26T11:49:23;24.40;36.20
81136;DHT22;70622;50.886;3.890;2023-06-26T11:51:51;24.40;34.80
81136;DHT22;70622;50.886;3.890;2023-06-26T11:54:24;24.30;33.00
81136;DHT22;70622;50.886;3.890;2023-06-26T11:56:58;24.30;35.20
81136;DHT22;70622;50.886;3.890;2023-06-26T11:59:34;24.50;34.00
81136;DHT22;70622;50.886;3.890;2023-06-26T12:01:59;24.30;35.10
81136;DHT22;70622;50.886;3.890;2023-06-26T12:04:25;24.30;36.20
81136;DHT22;70622;50.886;3.890;2023-06-26T12:06:53;24.60;35.10
81136;DHT22;70622;50.886;3.890;2023-06-26T12:09:23;24.30;35.00
81136;DHT22;70622;50.886;3.890;2023-06-26T12:11:52;24.40;36.70
81136;DHT22;70622;50.886;3.890;2023-06-26T12:14:20;24.30;36.10
81136;DHT22;70622;50.886;3.890;2023-06-26T12:16:46;23.90;36.10
81136;DHT22;70622;50.886;3.890;2023-06-26T12:19:12;23.60;36.30
81136;DHT22;70622;50.886;3.890;2023-06-26T12:24:23;23.40;36.00
81136;DHT22;70622;50.886;3.890;2023-06-26T12:26:54;24.10;36.30
81136;DHT22;70622;50.886;3.890;2023-06-26T12:29:29;24.30;35.60
81136;DHT22;70622;50.886;3.890;2023-06-26T12:31:55;24.40;34.70
81136;DHT22;70622;50.886;3.890;2023-06-26T12:34:26;24.40;35.40
81136;DHT22;70622;50.886;3.890;2023-06-26T12:36:52;24.90;34.70
81136;DHT22;70622;50.886;3.890;2023-06-26T12:39:20;24.90;34.70
81136;DHT22;70622;50.886;3.890;2023-06-26T12:41:53;24.80;34.30
81136;DHT22;70622;50.886;3.890;2023-06-26T12:46:57;24.50;34.70
81136;DHT22;70622;50.886;3.890;2023-06-26T12:49:40;24.00;35.00
81136;DHT22;70622;50.886;3.890;2023-06-26T12:52:10;23.90;35.50
81136;DHT22;70622;50.886;3.890;2023-06-26T12:54:37;24.20;34.50
81136;DHT22;70622;50.886;3.890;2023-06-26T12:57:04;24.50;32.30
81136;DHT22;70622;50.886;3.890;2023-06-26T12:59:30;24.80;32.40
81136;DHT22;70622;50.886;3.890;2023-06-26T13:01:57;25.10;31.70
81136;DHT22;70622;50.886;3.890;2023-06-26T13:04:23;25.00;31.00
81136;DHT22;70622;50.886;3.890;2023-06-26T13:06:49;25.20;32.00
81136;DHT22;70622;50.886;3.890;2023-06-26T13:09:15;25.20;29.70
81136;DHT22;70622;50.886;3.890;2023-06-26T13:11:41;24.80;29.70
81136;DHT22;70622;50.886;3.890;2023-06-26T13:14:06;25.20;30.70
81136;DHT22;70622;50.886;3.890;2023-06-26T13:16:32;25.40;30.80
81136;DHT22;70622;50.886;3.890;2023-06-26T13:18:59;25.60;30.20
81136;DHT22;70622;50.886;3.890;2023-06-26T13:21:25;25.40;30.00
81136;DHT22;70622;50.886;3.890;2023-06-26T13:23:50;25.20;32.80
81136;DHT22;70622;50.886;3.890;2023-06-26T13:26:16;25.20;33.60
81136;DHT22;70622;50.886;3.890;2023-06-26T13:28:42;24.90;33.70
81136;DHT22;70622;50.886;3.890;2023-06-26T13:31:08;25.00;34.70
81136;DHT22;70622;50.886;3.890;2023-06-26T13:33:33;24.90;35.10
81136;DHT22;70622;50.886;3.890;2023-06-26T13:35:59;24.80;34.80
81136;DHT22;70622;50.886;3.890;2023-06-26T13:38:25;25.20;33.50
81136;DHT22;70622;50.886;3.890;2023-06-26T13:40:52;25.20;32.80
81136;DHT22;70622;50.886;3.890;2023-06-26T13:43:19;25.00;34.30
81136;DHT22;70622;50.886;3.890;2023-06-26T13:45:45;25.20;33.50
81136;DHT22;70622;50.886;3.890;2023-06-26T13:48:10;25.30;34.50
81136;DHT22;70622;50.886;3.890;2023-06-26T13:50:36;25.20;34.30
81136;DHT22;70622;50.886;3.890;2023-06-26T13:53:02;25.00;34.20
81136;DHT22;70622;50.886;3.890;2023-06-26T13:55:27;25.00;35.00
81136;DHT22;70622;50.886;3.890;2023-06-26T13:57:53;25.40;33.60
81136;DHT22;70622;50.886;3.890;2023-06-26T14:00:19;25.80;33.50
81136;DHT22;70622;50.886;3.890;2023-06-26T14:02:47;25.60;33.30
81136;DHT22;70622;50.886;3.890;2023-06-26T14:05:13;25.20;33.50
81136;DHT22;70622;50.886;3.890;2023-06-26T14:07:39;24.70;34.70
81136;DHT22;70622;50.886;3.890;2023-06-26T14:10:05;24.70;36.10
81136;DHT22;70622;50.886;3.890;2023-06-26T14:12:31;24.40;36.20
81136;DHT22;70622;50.886;3.890;2023-06-26T14:14:57;24.10;37.10
81136;DHT22;70622;50.886;3.890;2023-06-26T14:17:23;24.20;37.00
81136;DHT22;70622;50.886;3.890;2023-06-26T14:19:51;24.00;37.70
81136;DHT22;70622;50.886;3.890;2023-06-26T14:22:17;24.10;38.80
81136;DHT22;70622;50.886;3.890;2023-06-26T14:24:43;24.10;37.50
81136;DHT22;70622;50.886;3.890;2023-06-26T14:27:08;24.20;37.00
81136;DHT22;70622;50.886;3.890;2023-06-26T14:29:35;24.20;37.10
81136;DHT22;70622;50.886;3.890;2023-06-26T14:32:01;24.40;37.00
81136;DHT22;70622;50.886;3.890;2023-06-26T14:34:27;24.30;37.30
81136;DHT22;70622;50.886;3.890;2023-06-26T14:36:52;24.40;36.90
81136;DHT22;70622;50.886;3.890;2023-06-26T14:39:18;24.40;37.20
81136;DHT22;70622;50.886;3.890;2023-06-26T14:41:44;24.40;36.40
81136;DHT22;70622;50.886;3.890;2023-06-26T14:44:09;24.80;35.80
81136;DHT22;70622;50.886;3.890;2023-06-26T14:46:36;25.00;34.60
81136;DHT22;70622;50.886;3.890;2023-06-26T14:49:03;25.30;35.00
81136;DHT22;70622;50.886;3.890;2023-06-26T14:51:28;26.20;33.90
81136;DHT22;70622;50.886;3.890;2023-06-26T14:53:54;27.20;31.00
81136;DHT22;70622;50.886;3.890;2023-06-26T14:56:20;27.90;29.60
81136;DHT22;70622;50.886;3.890;2023-06-26T14:58:46;29.10;29.30
81136;DHT22;70622;50.886;3.890;2023-06-26T15:01:12;30.20;27.50
81136;DHT22;70622;50.886;3.890;2023-06-26T15:03:41;30.00;26.80
81136;DHT22;70622;50.886;3.890;2023-06-26T15:06:07;29.50;26.60
81136;DHT22;70622;50.886;3.890;2023-06-26T15:08:34;28.70;27.40
81136;DHT22;70622;50.886;3.890;2023-06-26T15:11:01;27.60;28.20
81136;DHT22;70622;50.886;3.890;2023-06-26T15:13:28;26.60;29.10
81136;DHT22;70622;50.886;3.890;2023-06-26T15:15:54;26.40;29.00
81136;DHT22;70622;50.886;3.890;2023-06-26T15:18:19;26.20;30.30
81136;DHT22;70622;50.886;3.890;2023-06-26T15:20:45;26.70;29.80
81136;DHT22;70622;50.886;3.890;2023-06-26T15:23:11;26.70;29.20
81136;DHT22;70622;50.886;3.890;2023-06-26T15:25:37;26.20;29.40
81136;DHT22;70622;50.886;3.890;2023-06-26T15:28:04;26.50;29.70
81136;DHT22;70622;50.886;3.890;2023-06-26T15:30:31;26.50;29.70
81136;DHT22;70622;50.886;3.890;2023-06-26T15:32:56;26.20;30.00
81136;DHT22;70622;50.886;3.890;2023-06-26T15:35:22;26.50;29.60
81136;DHT22;70622;50.886;3.890;2023-06-26T15:37:47;26.10;30.70
81136;DHT22;70622;50.886;3.890;2023-06-26T15:40:15;25.90;31.20
81136;DHT22;70622;50.886;3.890;2023-06-26T15:42:48;25.50;31.70
81136;DHT22;70622;50.886;3.890;2023-06-26T15:45:15;25.40;32.60
81136;DHT22;70622;50.886;3.890;2023-06-26T15:47:43;25.50;32.70
81136;DHT22;70622;50.886;3.890;2023-06-26T15:50:09;25.30;32.80
81136;DHT22;70622;50.886;3.890;2023-06-26T15:52:35;25.20;33.10
81136;DHT22;70622;50.886;3.890;2023-06-26T15:55:01;24.90;34.10
81136;DHT22;70622;50.886;3.890;2023-06-26T15:57:27;24.90;35.00
81136;DHT22;70622;50.886;3.890;2023-06-26T15:59:52;24.80;34.30
81136;DHT22;70622;50.886;3.890;2023-06-26T16:02:18;24.90;34.40
81136;DHT22;70622;50.886;3.890;2023-06-26T16:04:44;25.00;34.00
81136;DHT22;70622;50.886;3.890;2023-06-26T16:07:09;25.00;34.70
81136;DHT22;70622;50.886;3.890;2023-06-26T16:09:35;25.20;34.60
81136;DHT22;70622;50.886;3.890;2023-06-26T16:12:01;24.90;35.50
81136;DHT22;70622;50.886;3.890;2023-06-26T16:14:26;24.60;35.00
81136;DHT22;70622;50.886;3.890;2023-06-26T16:16:52;24.60;35.60
81136;DHT22;70622;50.886;3.890;2023-06-26T16:19:18;24.50;34.60
81136;DHT22;70622;50.886;3.890;2023-06-26T16:21:44;24.10;35.10
81136;DHT22;70622;50.886;3.890;2023-06-26T16:24:09;23.90;35.80